createdAt,value
2022-10-06T00:01:09.534Z,2.40
2022-10-06T00:03:38.555Z,2.25
2022-10-06T00:06:07.805Z,2.05
2022-10-06T00:08:37.592Z,2.30
2022-10-06T00:11:05.637Z,2.03
2022-10-06T00:13:34.315Z,2.80
2022-10-06T00:16:02.291Z,2.15
2022-10-06T00:18:31.658Z,2.10
2022-10-06T00:21:01.211Z,2.08
2022-10-06T00:23:30.122Z,1.80
2022-10-06T00:25:58.336Z,1.92
2022-10-06T00:28:26.682Z,2.47
2022-10-06T00:30:56.210Z,2.10
2022-10-06T00:33:24.969Z,1.95
2022-10-06T00:35:59.057Z,2.35
2022-10-06T00:38:27.788Z,1.60
2022-10-06T00:40:56.212Z,1.90
2022-10-06T00:43:43.596Z,2.05
2022-10-06T00:46:16.807Z,2.28
2022-10-06T00:48:47.338Z,1.98
2022-10-06T00:51:16.294Z,1.92
2022-10-06T00:53:44.251Z,1.70
2022-10-06T00:56:12.735Z,1.92
2022-10-06T00:58:40.406Z,2.17
2022-10-06T01:01:10.927Z,1.88
2022-10-06T01:03:42.645Z,1.80
2022-10-06T01:06:10.792Z,2.30
2022-10-06T01:08:40.531Z,2.03
2022-10-06T01:11:13.095Z,2.00
2022-10-06T01:13:43.279Z,2.63
2022-10-06T01:16:18.131Z,2.55
2022-10-06T01:18:48.386Z,1.77
2022-10-06T01:21:24.713Z,1.80
2022-10-06T01:23:53.697Z,1.85
2022-10-06T01:26:25.042Z,1.67
2022-10-06T01:28:53.284Z,1.73
2022-10-06T01:31:21.882Z,1.70
2022-10-06T01:33:52.700Z,1.77
2022-10-06T01:36:20.468Z,2.20
2022-10-06T01:38:49.834Z,2.17
2022-10-06T01:41:19.470Z,2.00
2022-10-06T01:43:47.370Z,2.20
2022-10-06T01:46:15.143Z,2.08
2022-10-06T01:48:42.916Z,1.98
2022-10-06T01:51:15.814Z,3.47
2022-10-06T01:53:43.633Z,2.67
2022-10-06T01:56:11.192Z,3.05
2022-10-06T01:58:40.569Z,3.30
2022-10-06T02:01:10.857Z,3.03
2022-10-06T02:03:40.466Z,2.08
2022-10-06T02:06:10.458Z,2.00
2022-10-06T02:08:39.010Z,2.00
2022-10-06T02:11:09.577Z,2.22
2022-10-06T02:13:42.914Z,2.38
2022-10-06T02:16:13.768Z,2.13
2022-10-06T02:18:43.430Z,2.35
2022-10-06T02:21:15.473Z,1.80
2022-10-06T02:23:43.153Z,1.92
2022-10-06T02:26:11.580Z,2.00
2022-10-06T02:28:39.264Z,2.70
2022-10-06T02:31:11.936Z,1.85
2022-10-06T02:33:42.508Z,2.13
2022-10-06T02:36:12.678Z,2.22
2022-10-06T02:38:41.562Z,2.08
2022-10-06T02:41:10.518Z,2.28
2022-10-06T02:43:39.063Z,1.90
2022-10-06T02:46:10.303Z,2.47
2022-10-06T02:48:41.627Z,2.30
2022-10-06T02:51:13.377Z,2.67
2022-10-06T02:53:40.951Z,2.40
2022-10-06T02:56:11.168Z,2.15
2022-10-06T02:58:39.882Z,2.00
2022-10-06T03:01:12.732Z,2.08
2022-10-06T03:03:42.201Z,1.98
2022-10-06T03:06:22.568Z,1.60
2022-10-06T03:08:59.390Z,2.15
2022-10-06T03:11:29.349Z,2.08
2022-10-06T03:13:57.981Z,2.10
2022-10-06T03:16:28.164Z,2.33
2022-10-06T03:18:57.612Z,1.80
2022-10-06T03:21:26.911Z,1.75
2022-10-06T03:23:56.281Z,1.95
2022-10-06T03:26:28.189Z,2.10
2022-10-06T03:28:57.157Z,1.98
2022-10-06T03:31:26.184Z,3.55
2022-10-06T03:33:56.457Z,3.03
2022-10-06T03:36:29.298Z,2.55
2022-10-06T03:38:56.931Z,2.17
2022-10-06T03:41:26.928Z,2.03
2022-10-06T03:43:56.356Z,2.55
2022-10-06T03:46:25.760Z,2.10
2022-10-06T03:48:54.453Z,2.10
2022-10-06T03:51:24.383Z,1.88
2022-10-06T03:53:53.771Z,1.65
2022-10-06T03:56:25.480Z,2.13
2022-10-06T03:58:55.214Z,1.90
2022-10-06T04:01:26.380Z,2.05
2022-10-06T04:03:55.382Z,1.70
2022-10-06T04:06:24.128Z,2.25
2022-10-06T04:08:54.026Z,1.67
2022-10-06T04:11:23.527Z,4.50
2022-10-06T04:13:54.276Z,2.47
2022-10-06T04:16:24.095Z,2.10
2022-10-06T04:18:54.202Z,2.30
2022-10-06T04:21:22.620Z,1.90
2022-10-06T04:23:52.810Z,1.88
2022-10-06T04:26:23.619Z,2.30
2022-10-06T04:28:52.809Z,2.10
2022-10-06T04:31:23.045Z,2.13
2022-10-06T04:33:53.570Z,2.47
2022-10-06T04:36:23.777Z,2.10
2022-10-06T04:38:58.692Z,1.92
2022-10-06T04:41:32.210Z,2.22
2022-10-06T04:44:00.825Z,2.17
2022-10-06T04:46:42.558Z,2.63
2022-10-06T04:49:18.557Z,1.92
2022-10-06T04:51:48.515Z,2.42
2022-10-06T04:54:16.154Z,2.03
2022-10-06T04:56:45.161Z,2.42
2022-10-06T04:59:12.756Z,2.20
2022-10-06T05:01:43.495Z,2.10
2022-10-06T05:04:13.441Z,2.60
2022-10-06T05:06:42.401Z,2.42
2022-10-06T05:09:13.249Z,2.10
2022-10-06T05:11:48.041Z,2.45
2022-10-06T05:14:18.536Z,2.63
2022-10-06T05:16:49.071Z,2.22
2022-10-06T05:19:17.506Z,1.90
2022-10-06T05:21:45.085Z,2.63
2022-10-06T05:24:17.552Z,2.10
2022-10-06T05:26:45.167Z,2.28
2022-10-06T05:29:16.780Z,2.33
2022-10-06T05:31:45.345Z,1.92
2022-10-06T05:34:14.723Z,1.98
2022-10-06T05:36:42.285Z,1.75
2022-10-06T05:39:12.091Z,1.50
2022-10-06T05:41:45.069Z,2.63
2022-10-06T05:44:14.551Z,2.13
2022-10-06T05:46:45.173Z,2.10
2022-10-06T05:49:13.480Z,2.05
2022-10-06T05:51:48.995Z,2.05
2022-10-06T05:54:24.356Z,2.45
2022-10-06T05:56:51.968Z,2.00
2022-10-06T05:59:19.492Z,1.92
2022-10-06T06:01:49.054Z,2.35
2022-10-06T06:04:25.697Z,1.60
2022-10-06T06:06:56.461Z,1.67
2022-10-06T06:09:26.204Z,1.85
2022-10-06T06:11:55.679Z,1.73
2022-10-06T06:14:41.716Z,2.05
2022-10-06T06:17:11.277Z,1.65
2022-10-06T06:19:39.138Z,1.90
2022-10-06T06:22:07.972Z,1.83
2022-10-06T06:24:38.847Z,1.80
2022-10-06T06:27:06.361Z,1.55
2022-10-06T06:29:34.027Z,1.67
2022-10-06T06:32:01.542Z,1.40
2022-10-06T06:34:30.537Z,1.48
2022-10-06T06:37:03.616Z,2.22
2022-10-06T06:39:35.368Z,2.00
2022-10-06T06:42:05.033Z,1.30
2022-10-06T06:44:39.452Z,1.42
2022-10-06T06:47:20.786Z,1.20
2022-10-06T06:49:52.397Z,2.53
2022-10-06T06:52:20.773Z,1.60
2022-10-06T06:54:49.826Z,1.05
2022-10-06T06:57:19.188Z,1.70
2022-10-06T06:59:49.509Z,1.70
2022-10-06T07:02:18.636Z,1.40
2022-10-06T07:04:48.121Z,1.42
2022-10-06T07:07:19.434Z,1.17
2022-10-06T07:09:47.055Z,1.25
2022-10-06T07:12:16.527Z,1.38
2022-10-06T07:15:06.672Z,1.00
2022-10-06T07:17:56.727Z,1.10
2022-10-06T07:20:42.276Z,0.70
2022-10-06T07:23:35.595Z,0.93
2022-10-06T07:26:04.937Z,1.00
2022-10-06T07:28:32.835Z,0.80
2022-10-06T07:31:01.565Z,0.90
2022-10-06T07:33:32.333Z,0.90
2022-10-06T07:36:01.590Z,0.90
2022-10-06T07:38:31.240Z,0.70
2022-10-06T07:41:19.421Z,0.95
2022-10-06T07:43:54.858Z,0.70
2022-10-06T07:46:25.124Z,0.70
2022-10-06T07:49:04.016Z,0.90
2022-10-06T07:51:32.567Z,0.95
2022-10-06T07:54:02.816Z,0.63
2022-10-06T07:56:34.910Z,1.20
2022-10-06T07:59:02.864Z,1.13
2022-10-06T08:01:30.913Z,1.30
2022-10-06T08:03:58.703Z,0.73
2022-10-06T08:06:26.278Z,0.90
2022-10-06T08:08:54.956Z,0.75
2022-10-06T08:11:23.831Z,0.80
2022-10-06T08:13:52.621Z,0.90
2022-10-06T08:16:22.696Z,0.50
2022-10-06T08:18:53.097Z,0.70
2022-10-06T08:21:22.483Z,0.70
2022-10-06T08:23:51.777Z,0.68
2022-10-06T08:26:21.085Z,1.13
2022-10-06T08:28:52.062Z,0.95
2022-10-06T08:31:21.571Z,1.00
2022-10-06T08:33:50.188Z,0.88
2022-10-06T08:36:19.649Z,1.13
2022-10-06T08:38:50.428Z,1.13
2022-10-06T08:41:24.455Z,1.00
2022-10-06T08:44:01.044Z,1.02
2022-10-06T08:46:35.773Z,1.00
2022-10-06T08:49:05.630Z,0.88
2022-10-06T08:51:51.590Z,1.00
2022-10-06T08:54:29.783Z,1.10
2022-10-06T08:57:04.259Z,0.90
2022-10-06T08:59:36.345Z,0.65
2022-10-06T09:02:05.664Z,0.73
2022-10-06T09:04:34.189Z,0.80
2022-10-06T09:07:07.822Z,0.70
2022-10-06T09:10:05.936Z,0.70
2022-10-06T09:12:42.921Z,0.60
2022-10-06T09:15:24.380Z,0.75
2022-10-06T09:18:00.185Z,0.85
2022-10-06T09:20:33.591Z,0.60
2022-10-06T09:25:30.965Z,0.60
2022-10-06T09:28:00.562Z,0.70
2022-10-06T09:30:29.845Z,1.08
2022-10-06T09:33:00.369Z,1.00
2022-10-06T09:35:29.807Z,0.60
2022-10-06T09:37:58.820Z,0.80
2022-10-06T09:40:38.454Z,0.90
2022-10-06T09:43:18.704Z,0.88
2022-10-06T09:45:47.688Z,0.90
2022-10-06T09:48:24.750Z,0.70
2022-10-06T09:51:09.280Z,0.73
2022-10-06T09:53:39.447Z,1.40
2022-10-06T09:56:15.456Z,0.95
2022-10-06T09:58:56.255Z,0.80
2022-10-06T10:01:27.252Z,0.70
2022-10-06T10:04:20.694Z,0.90
2022-10-06T10:06:48.574Z,0.82
2022-10-06T10:09:25.329Z,0.90
2022-10-06T10:12:30.916Z,0.60
2022-10-06T10:15:01.689Z,0.63
2022-10-06T10:17:39.294Z,0.90
2022-10-06T10:20:25.632Z,0.90
2022-10-06T10:22:54.563Z,0.95
2022-10-06T10:25:38.609Z,1.00
2022-10-06T10:28:17.567Z,0.90
2022-10-06T10:30:54.697Z,0.98
2022-10-06T10:33:28.887Z,1.00
2022-10-06T10:35:58.853Z,0.70
2022-10-06T10:38:28.645Z,0.50
2022-10-06T10:41:04.472Z,0.80
2022-10-06T10:43:35.087Z,0.90
2022-10-06T10:46:09.231Z,0.80
2022-10-06T10:48:43.664Z,0.98
2022-10-06T10:51:16.669Z,0.60
2022-10-06T10:53:49.852Z,0.68
2022-10-06T10:56:21.298Z,0.95
2022-10-06T10:58:53.247Z,0.75
2022-10-06T11:01:34.881Z,0.90
2022-10-06T11:04:04.316Z,0.77
2022-10-06T11:06:54.209Z,1.00
2022-10-06T11:09:26.365Z,0.65
2022-10-06T11:12:08.500Z,0.60
2022-10-06T11:14:57.810Z,0.70
2022-10-06T11:17:47.024Z,0.80
2022-10-06T11:20:37.596Z,0.82
2022-10-06T11:23:25.857Z,0.73
2022-10-06T11:26:05.352Z,1.25
2022-10-06T11:28:40.407Z,0.63
2022-10-06T11:31:22.675Z,0.90
2022-10-06T11:33:54.153Z,0.90
2022-10-06T11:36:34.731Z,0.80
2022-10-06T11:39:08.371Z,0.90
2022-10-06T11:41:40.429Z,0.70
2022-10-06T11:44:18.412Z,1.33
2022-10-06T11:46:53.996Z,0.82
2022-10-06T11:49:48.045Z,0.70
2022-10-06T11:52:46.301Z,0.60
2022-10-06T11:55:21.940Z,0.60
2022-10-06T11:58:41.255Z,1.02
2022-10-06T12:01:04.287Z,0.70
2022-10-06T12:04:05.328Z,0.80
2022-10-06T12:07:01.870Z,0.60
2022-10-06T12:09:46.041Z,1.02
2022-10-06T12:13:06.546Z,2.67
2022-10-06T12:18:51.053Z,0.70
2022-10-06T12:21:31.428Z,0.98
2022-10-06T12:24:06.181Z,1.00
2022-10-06T12:26:54.231Z,1.02
2022-10-06T12:29:43.248Z,1.20
2022-10-06T12:32:22.256Z,0.77
2022-10-06T12:34:59.800Z,0.80
2022-10-06T12:37:51.529Z,0.70
2022-10-06T12:43:40.478Z,1.05
2022-10-06T12:46:17.207Z,1.30
2022-10-06T12:48:54.491Z,1.10
2022-10-06T12:51:30.252Z,0.70
2022-10-06T12:54:05.200Z,1.00
2022-10-06T12:56:34.611Z,1.08
2022-10-06T12:59:23.778Z,0.63
2022-10-06T13:01:55.816Z,0.57
2022-10-06T13:04:35.151Z,0.75
2022-10-06T13:07:08.696Z,1.00
2022-10-06T13:09:36.491Z,0.80
2022-10-06T13:12:21.379Z,0.98
2022-10-06T13:14:49.148Z,0.60
2022-10-06T13:17:18.060Z,0.85
2022-10-06T13:19:45.615Z,0.70
2022-10-06T13:22:14.149Z,1.25
2022-10-06T13:24:41.795Z,0.95
2022-10-06T13:27:17.657Z,1.35
2022-10-06T13:29:45.214Z,1.17
2022-10-06T13:32:18.957Z,1.13
2022-10-06T13:34:46.817Z,4.07
2022-10-06T13:37:16.131Z,1.30
2022-10-06T13:39:43.725Z,3.85
2022-10-06T13:42:17.594Z,3.13
2022-10-06T13:44:49.429Z,0.90
2022-10-06T13:47:19.765Z,0.55
2022-10-06T13:49:50.690Z,0.60
2022-10-06T13:52:21.008Z,0.85
2022-10-06T13:54:53.383Z,0.77
2022-10-06T13:57:38.572Z,0.63
2022-10-06T14:00:16.217Z,1.23
2022-10-06T14:02:46.635Z,0.90
2022-10-06T14:05:30.419Z,0.60
2022-10-06T14:08:00.864Z,0.52
2022-10-06T14:10:33.354Z,0.82
2022-10-06T14:13:02.175Z,1.07
2022-10-06T14:15:36.443Z,0.98
2022-10-06T14:18:06.003Z,1.10
2022-10-06T14:20:42.405Z,0.90
2022-10-06T14:23:42.517Z,2.13
2022-10-06T14:26:12.026Z,1.15
2022-10-06T14:28:40.080Z,0.70
2022-10-06T14:31:13.493Z,1.00
2022-10-06T14:33:43.663Z,0.90
2022-10-06T14:36:17.833Z,1.17
2022-10-06T14:38:47.855Z,0.90
2022-10-06T14:41:19.016Z,0.88
2022-10-06T14:43:47.821Z,0.98
2022-10-06T14:46:15.975Z,0.80
2022-10-06T14:48:45.075Z,0.98
2022-10-06T14:51:12.587Z,1.20
2022-10-06T14:53:40.254Z,0.80
2022-10-06T14:56:11.006Z,0.63
2022-10-06T14:58:39.448Z,0.88
2022-10-06T15:01:07.556Z,0.70
2022-10-06T15:03:35.785Z,1.00
2022-10-06T15:06:24.332Z,0.70
2022-10-06T15:08:52.583Z,0.43
2022-10-06T15:11:20.960Z,0.85
2022-10-06T15:13:49.151Z,0.90
2022-10-06T15:16:17.973Z,0.80
2022-10-06T15:18:45.867Z,0.70
2022-10-06T15:21:14.725Z,0.85
2022-10-06T15:23:42.361Z,0.50
2022-10-06T15:26:28.655Z,0.60
2022-10-06T15:29:02.716Z,0.50
2022-10-06T15:31:32.790Z,0.50
2022-10-06T15:34:02.006Z,0.70
2022-10-06T15:36:33.319Z,0.70
2022-10-06T15:39:06.110Z,0.75
2022-10-06T15:41:34.737Z,0.70
2022-10-06T15:44:02.689Z,0.50
2022-10-06T15:46:32.285Z,0.70
2022-10-06T15:49:02.053Z,0.65
2022-10-06T15:51:34.628Z,0.98
2022-10-06T15:54:02.148Z,0.90
2022-10-06T15:56:31.048Z,0.82
2022-10-06T15:58:59.264Z,0.50
2022-10-06T16:01:33.730Z,0.80
2022-10-06T16:04:08.550Z,0.65
2022-10-06T16:06:55.790Z,0.73
2022-10-06T16:09:25.252Z,2.35
2022-10-06T16:11:53.534Z,3.17
2022-10-06T16:14:21.608Z,2.75
2022-10-06T16:16:49.704Z,1.60
2022-10-06T16:19:18.653Z,5.13
2022-10-06T16:21:49.576Z,1.95
2022-10-06T16:24:17.257Z,1.00
2022-10-06T16:26:45.945Z,0.68
2022-10-06T16:29:13.497Z,1.20
2022-10-06T16:31:41.065Z,1.30
2022-10-06T16:34:08.722Z,1.20
2022-10-06T16:36:37.552Z,1.25
2022-10-06T16:39:07.935Z,1.30
2022-10-06T16:41:35.471Z,3.20
2022-10-06T16:44:02.984Z,5.53
2022-10-06T16:46:32.180Z,2.35
2022-10-06T16:49:01.446Z,1.27
2022-10-06T16:51:30.885Z,0.73
2022-10-06T16:54:00.087Z,1.20
2022-10-06T16:56:30.840Z,0.90
2022-10-06T16:59:00.117Z,1.63
2022-10-06T17:01:29.012Z,3.10
2022-10-06T17:04:00.365Z,1.77
2022-10-06T17:06:27.973Z,0.55
2022-10-06T17:08:56.515Z,0.60
2022-10-06T17:11:25.605Z,1.20
2022-10-06T17:13:57.043Z,1.98
2022-10-06T17:16:26.764Z,2.70
2022-10-06T17:18:56.708Z,1.75
2022-10-06T17:21:46.324Z,2.17
2022-10-06T17:24:12.842Z,1.88
2022-10-06T17:26:41.868Z,8.00
2022-10-06T17:29:14.824Z,3.55
2022-10-06T17:31:43.990Z,1.90
2022-10-06T17:34:18.233Z,1.17
2022-10-06T17:36:49.077Z,1.75
2022-10-06T17:39:18.525Z,3.75
2022-10-06T17:41:47.520Z,2.10
2022-10-06T17:44:18.728Z,0.70
2022-10-06T17:46:47.110Z,1.30
2022-10-06T17:49:16.409Z,1.52
2022-10-06T17:51:46.025Z,3.08
2022-10-06T17:54:16.736Z,1.63
2022-10-06T17:56:45.508Z,2.17
2022-10-06T17:59:15.203Z,1.52
2022-10-06T18:01:45.281Z,1.13
2022-10-06T18:04:15.974Z,1.02
2022-10-06T18:06:44.785Z,0.80
2022-10-06T18:09:13.125Z,1.00
2022-10-06T18:11:43.204Z,2.30
2022-10-06T18:14:12.807Z,2.47
2022-10-06T18:16:42.776Z,1.40
2022-10-06T18:19:13.893Z,0.80
2022-10-06T18:21:43.068Z,0.98
2022-10-06T18:24:15.100Z,1.20
2022-10-06T18:26:43.311Z,1.45
2022-10-06T18:29:11.845Z,1.00
2022-10-06T18:31:40.205Z,2.50
2022-10-06T18:36:57.697Z,1.00
2022-10-06T18:39:25.540Z,0.90
2022-10-06T18:41:53.447Z,0.82
2022-10-06T18:44:41.077Z,1.00
2022-10-06T18:47:26.270Z,1.77
2022-10-06T18:49:53.924Z,3.22
2022-10-06T18:52:22.890Z,2.22
2022-10-06T18:54:50.704Z,1.38
2022-10-06T18:57:18.307Z,1.13
2022-10-06T18:59:45.976Z,1.50
2022-10-06T19:02:13.872Z,13.32
2022-10-06T19:04:42.571Z,16.60
2022-10-06T19:07:10.210Z,8.15
2022-10-06T19:09:43.861Z,4.22
2022-10-06T19:12:13.898Z,3.03
2022-10-06T19:14:47.788Z,2.40
2022-10-06T19:17:16.356Z,1.98
2022-10-06T19:19:45.239Z,2.40
2022-10-06T19:22:14.332Z,2.92
2022-10-06T19:24:44.942Z,2.10
2022-10-06T19:27:15.732Z,2.17
2022-10-06T19:29:45.948Z,2.33
2022-10-06T19:32:16.863Z,3.40
2022-10-06T19:34:44.856Z,3.42
2022-10-06T19:37:12.448Z,2.33
2022-10-06T19:39:43.850Z,2.75
2022-10-06T19:42:29.683Z,2.90
2022-10-06T19:44:57.463Z,3.53
2022-10-06T19:47:25.101Z,3.00
2022-10-06T19:49:57.894Z,2.20
2022-10-06T19:52:26.675Z,2.60
2022-10-06T19:54:55.584Z,2.40
2022-10-06T19:57:23.497Z,2.42
2022-10-06T19:59:51.598Z,2.78
2022-10-06T20:02:19.756Z,4.03
2022-10-06T20:04:47.358Z,11.57
2022-10-06T20:07:14.914Z,11.98
2022-10-06T20:09:42.654Z,9.10
2022-10-06T20:12:12.124Z,16.48
2022-10-06T20:14:39.687Z,24.17
2022-10-06T20:17:07.301Z,10.50
2022-10-06T20:19:35.196Z,3.33
2022-10-06T20:22:02.877Z,8.85
2022-10-06T20:24:31.690Z,4.10
2022-10-06T20:26:59.271Z,5.70
2022-10-06T20:29:28.475Z,29.63
2022-10-06T20:31:58.666Z,25.23
2022-10-06T20:34:31.421Z,17.65
2022-10-06T20:37:01.759Z,10.27
2022-10-06T20:39:48.936Z,5.40
2022-10-06T20:42:16.564Z,5.32
2022-10-06T20:44:45.532Z,4.75
2022-10-06T20:47:13.801Z,4.47
2022-10-06T20:49:42.431Z,3.53
2022-10-06T20:52:14.063Z,3.63
2022-10-06T20:54:41.629Z,2.88
2022-10-06T20:57:09.463Z,2.30
2022-10-06T20:59:37.352Z,3.05
2022-10-06T21:02:07.856Z,14.95
2022-10-06T21:04:35.475Z,22.67
2022-10-06T21:07:05.581Z,5.70
2022-10-06T21:09:33.144Z,3.88
2022-10-06T21:12:01.653Z,3.35
2022-10-06T21:14:30.019Z,2.85
2022-10-06T21:16:57.641Z,3.00
2022-10-06T21:19:29.748Z,2.95
2022-10-06T21:21:57.322Z,2.65
2022-10-06T21:24:25.012Z,3.28
2022-10-06T21:26:52.724Z,3.53
2022-10-06T21:29:21.044Z,3.40
2022-10-06T21:31:48.747Z,3.33
2022-10-06T21:34:16.452Z,3.08
2022-10-06T21:36:45.529Z,3.67
2022-10-06T21:39:14.243Z,4.07
2022-10-06T21:41:42.131Z,3.67
2022-10-06T21:44:11.318Z,3.65
2022-10-06T21:46:41.462Z,3.72
2022-10-06T21:49:11.867Z,3.50
2022-10-06T21:51:41.112Z,2.88
2022-10-06T21:54:11.050Z,3.13
2022-10-06T21:56:39.182Z,3.53
2022-10-06T21:59:07.008Z,3.65
2022-10-06T22:01:36.597Z,3.50
